sensor_id;sensor_type;location;lat;lon;timestamp;P1;durP1;ratioP1;P2;durP2;ratioP2
3427;SDS011;1727;42.624;23.406;2022-09-28T00:02:22;4.40;;;3.10;;
3427;SDS011;1727;42.624;23.406;2022-09-28T00:04:49;3.40;;;2.73;;
3427;SDS011;1727;42.624;23.406;2022-09-28T00:07:16;6.53;;;3.10;;
3427;SDS011;1727;42.624;23.406;2022-09-28T00:09:43;5.43;;;2.90;;
3427;SDS011;1727;42.624;23.406;2022-09-28T00:12:10;3.25;;;2.95;;
3427;SDS011;1727;42.624;23.406;2022-09-28T00:14:38;7.37;;;3.47;;
3427;SDS011;1727;42.624;23.406;2022-09-28T00:17:07;4.60;;;2.87;;
3427;SDS011;1727;42.624;23.406;2022-09-28T00:19:33;3.70;;;2.77;;
3427;SDS011;1727;42.624;23.406;2022-09-28T00:22:00;2.47;;;2.27;;
3427;SDS011;1727;42.624;23.406;2022-09-28T00:24:27;3.20;;;2.93;;
3427;SDS011;1727;42.624;23.406;2022-09-28T00:26:55;3.77;;;2.60;;
3427;SDS011;1727;42.624;23.406;2022-09-28T00:29:25;3.00;;;2.37;;
3427;SDS011;1727;42.624;23.406;2022-09-28T00:31:55;3.03;;;2.83;;
3427;SDS011;1727;42.624;23.406;2022-09-28T00:34:26;2.97;;;2.77;;
3427;SDS011;1727;42.624;23.406;2022-09-28T00:36:55;11.30;;;3.00;;
3427;SDS011;1727;42.624;23.406;2022-09-28T00:39:22;4.30;;;4.00;;
3427;SDS011;1727;42.624;23.406;2022-09-28T00:41:49;3.97;;;3.17;;
3427;SDS011;1727;42.624;23.406;2022-09-28T00:47:16;3.53;;;2.53;;
3427;SDS011;1727;42.624;23.406;2022-09-28T00:49:53;4.33;;;2.63;;
3427;SDS011;1727;42.624;23.406;2022-09-28T00:52:25;5.97;;;3.27;;
3427;SDS011;1727;42.624;23.406;2022-09-28T00:54:57;5.67;;;3.90;;
3427;SDS011;1727;42.624;23.406;2022-09-28T00:57:27;3.10;;;2.80;;
3427;SDS011;1727;42.624;23.406;2022-09-28T00:59:55;6.43;;;2.70;;
3427;SDS011;1727;42.624;23.406;2022-09-28T01:02:26;4.30;;;3.07;;
3427;SDS011;1727;42.624;23.406;2022-09-28T01:04:53;3.00;;;2.80;;
3427;SDS011;1727;42.624;23.406;2022-09-28T01:07:22;3.90;;;2.80;;
3427;SDS011;1727;42.624;23.406;2022-09-28T01:09:49;3.77;;;3.40;;
3427;SDS011;1727;42.624;23.406;2022-09-28T01:12:18;7.83;;;3.20;;
3427;SDS011;1727;42.624;23.406;2022-09-28T01:14:45;6.20;;;3.17;;
3427;SDS011;1727;42.624;23.406;2022-09-28T01:17:13;2.80;;;2.60;;
3427;SDS011;1727;42.624;23.406;2022-09-28T01:19:57;4.77;;;2.73;;
3427;SDS011;1727;42.624;23.406;2022-09-28T01:22:38;10.57;;;3.33;;
3427;SDS011;1727;42.624;23.406;2022-09-28T01:25:38;4.43;;;2.50;;
3427;SDS011;1727;42.624;23.406;2022-09-28T01:28:11;7.00;;;2.73;;
3427;SDS011;1727;42.624;23.406;2022-09-28T01:30:42;3.00;;;2.70;;
3427;SDS011;1727;42.624;23.406;2022-09-28T01:33:17;3.80;;;2.97;;
3427;SDS011;1727;42.624;23.406;2022-09-28T01:35:48;7.10;;;3.20;;
3427;SDS011;1727;42.624;23.406;2022-09-28T01:38:21;5.60;;;3.20;;
3427;SDS011;1727;42.624;23.406;2022-09-28T01:40:54;5.30;;;4.10;;
3427;SDS011;1727;42.624;23.406;2022-09-28T01:43:23;5.37;;;4.27;;
3427;SDS011;1727;42.624;23.406;2022-09-28T01:45:53;3.53;;;3.10;;
3427;SDS011;1727;42.624;23.406;2022-09-28T01:48:25;4.90;;;4.03;;
3427;SDS011;1727;42.624;23.406;2022-09-28T01:50:57;6.80;;;3.70;;
3427;SDS011;1727;42.624;23.406;2022-09-28T01:53:30;3.50;;;3.07;;
3427;SDS011;1727;42.624;23.406;2022-09-28T01:56:03;3.87;;;3.40;;
3427;SDS011;1727;42.624;23.406;2022-09-28T01:58:36;3.50;;;3.20;;
3427;SDS011;1727;42.624;23.406;2022-09-28T02:01:06;5.93;;;3.30;;
3427;SDS011;1727;42.624;23.406;2022-09-28T02:03:39;4.73;;;3.30;;
3427;SDS011;1727;42.624;23.406;2022-09-28T02:06:14;5.80;;;2.73;;
3427;SDS011;1727;42.624;23.406;2022-09-28T02:08:45;3.70;;;3.30;;
3427;SDS011;1727;42.624;23.406;2022-09-28T02:11:18;6.77;;;2.97;;
3427;SDS011;1727;42.624;23.406;2022-09-28T02:13:48;3.20;;;2.90;;
3427;SDS011;1727;42.624;23.406;2022-09-28T02:16:20;5.53;;;3.17;;
3427;SDS011;1727;42.624;23.406;2022-09-28T02:18:51;4.13;;;3.73;;
3427;SDS011;1727;42.624;23.406;2022-09-28T02:21:21;17.67;;;3.40;;
3427;SDS011;1727;42.624;23.406;2022-09-28T02:23:52;5.20;;;3.90;;
3427;SDS011;1727;42.624;23.406;2022-09-28T02:26:23;4.90;;;2.80;;
3427;SDS011;1727;42.624;23.406;2022-09-28T02:28:57;7.63;;;3.57;;
3427;SDS011;1727;42.624;23.406;2022-09-28T02:31:24;4.40;;;3.70;;
3427;SDS011;1727;42.624;23.406;2022-09-28T02:33:51;6.23;;;3.97;;
3427;SDS011;1727;42.624;23.406;2022-09-28T02:36:20;8.10;;;3.73;;
3427;SDS011;1727;42.624;23.406;2022-09-28T02:38:48;11.60;;;3.57;;
3427;SDS011;1727;42.624;23.406;2022-09-28T02:41:19;5.53;;;3.50;;
3427;SDS011;1727;42.624;23.406;2022-09-28T02:43:55;3.83;;;3.43;;
3427;SDS011;1727;42.624;23.406;2022-09-28T02:46:35;4.10;;;3.30;;
3427;SDS011;1727;42.624;23.406;2022-09-28T02:49:14;6.07;;;3.20;;
3427;SDS011;1727;42.624;23.406;2022-09-28T02:51:57;3.83;;;3.50;;
3427;SDS011;1727;42.624;23.406;2022-09-28T02:57:41;8.47;;;3.37;;
3427;SDS011;1727;42.624;23.406;2022-09-28T03:00:17;4.20;;;3.87;;
3427;SDS011;1727;42.624;23.406;2022-09-28T03:02:48;5.07;;;3.30;;
3427;SDS011;1727;42.624;23.406;2022-09-28T03:05:20;4.30;;;4.00;;
3427;SDS011;1727;42.624;23.406;2022-09-28T03:07:53;5.40;;;4.33;;
3427;SDS011;1727;42.624;23.406;2022-09-28T03:10:26;11.37;;;4.80;;
3427;SDS011;1727;42.624;23.406;2022-09-28T03:12:59;5.77;;;4.50;;
3427;SDS011;1727;42.624;23.406;2022-09-28T03:15:28;5.13;;;4.63;;
3427;SDS011;1727;42.624;23.406;2022-09-28T03:18:12;5.80;;;4.80;;
3427;SDS011;1727;42.624;23.406;2022-09-28T03:20:38;5.57;;;5.10;;
3427;SDS011;1727;42.624;23.406;2022-09-28T03:23:05;5.80;;;5.20;;
3427;SDS011;1727;42.624;23.406;2022-09-28T03:25:32;4.90;;;4.47;;
3427;SDS011;1727;42.624;23.406;2022-09-28T03:27:59;6.60;;;4.60;;
3427;SDS011;1727;42.624;23.406;2022-09-28T03:30:26;8.07;;;5.00;;
3427;SDS011;1727;42.624;23.406;2022-09-28T03:32:57;9.93;;;5.67;;
3427;SDS011;1727;42.624;23.406;2022-09-28T03:35:25;5.67;;;4.90;;
3427;SDS011;1727;42.624;23.406;2022-09-28T03:37:53;5.90;;;5.27;;
3427;SDS011;1727;42.624;23.406;2022-09-28T03:40:20;5.93;;;5.33;;
3427;SDS011;1727;42.624;23.406;2022-09-28T03:42:47;17.40;;;6.07;;
3427;SDS011;1727;42.624;23.406;2022-09-28T03:45:14;6.20;;;5.60;;
3427;SDS011;1727;42.624;23.406;2022-09-28T03:47:43;5.43;;;4.93;;
3427;SDS011;1727;42.624;23.406;2022-09-28T03:50:11;19.73;;;6.60;;
3427;SDS011;1727;42.624;23.406;2022-09-28T03:52:39;6.20;;;5.37;;
3427;SDS011;1727;42.624;23.406;2022-09-28T03:55:06;6.60;;;5.43;;
3427;SDS011;1727;42.624;23.406;2022-09-28T03:57:34;6.73;;;6.07;;
3427;SDS011;1727;42.624;23.406;2022-09-28T04:00:01;6.60;;;6.00;;
3427;SDS011;1727;42.624;23.406;2022-09-28T04:02:29;6.10;;;5.60;;
3427;SDS011;1727;42.624;23.406;2022-09-28T04:04:56;12.30;;;6.27;;
3427;SDS011;1727;42.624;23.406;2022-09-28T04:07:23;7.80;;;6.43;;
3427;SDS011;1727;42.624;23.406;2022-09-28T04:09:51;11.83;;;5.50;;
3427;SDS011;1727;42.624;23.406;2022-09-28T04:12:18;6.43;;;5.80;;
3427;SDS011;1727;42.624;23.406;2022-09-28T04:14:45;7.47;;;5.53;;
3427;SDS011;1727;42.624;23.406;2022-09-28T04:17:12;5.07;;;4.57;;
3427;SDS011;1727;42.624;23.406;2022-09-28T04:19:39;8.97;;;5.77;;
3427;SDS011;1727;42.624;23.406;2022-09-28T04:22:06;9.80;;;5.67;;
3427;SDS011;1727;42.624;23.406;2022-09-28T04:24:33;7.27;;;5.00;;
3427;SDS011;1727;42.624;23.406;2022-09-28T04:27:01;6.10;;;4.90;;
3427;SDS011;1727;42.624;23.406;2022-09-28T04:29:44;7.60;;;5.43;;
3427;SDS011;1727;42.624;23.406;2022-09-28T04:32:11;7.10;;;5.40;;
3427;SDS011;1727;42.624;23.406;2022-09-28T04:34:38;4.87;;;4.30;;
3427;SDS011;1727;42.624;23.406;2022-09-28T04:37:05;7.50;;;5.97;;
3427;SDS011;1727;42.624;23.406;2022-09-28T04:39:32;6.43;;;5.82;;
3427;SDS011;1727;42.624;23.406;2022-09-28T04:41:59;7.03;;;5.80;;
3427;SDS011;1727;42.624;23.406;2022-09-28T04:44:27;6.20;;;5.47;;
3427;SDS011;1727;42.624;23.406;2022-09-28T04:46:54;16.60;;;7.40;;
3427;SDS011;1727;42.624;23.406;2022-09-28T04:49:21;10.43;;;4.90;;
3427;SDS011;1727;42.624;23.406;2022-09-28T04:51:48;9.73;;;5.77;;
3427;SDS011;1727;42.624;23.406;2022-09-28T04:54:15;5.40;;;4.87;;
3427;SDS011;1727;42.624;23.406;2022-09-28T04:56:42;5.53;;;4.60;;
3427;SDS011;1727;42.624;23.406;2022-09-28T04:59:10;10.17;;;5.20;;
3427;SDS011;1727;42.624;23.406;2022-09-28T05:01:37;5.70;;;4.83;;
3427;SDS011;1727;42.624;23.406;2022-09-28T05:04:04;6.53;;;5.73;;
3427;SDS011;1727;42.624;23.406;2022-09-28T05:06:31;6.00;;;4.47;;
3427;SDS011;1727;42.624;23.406;2022-09-28T05:08:58;5.80;;;4.27;;
3427;SDS011;1727;42.624;23.406;2022-09-28T05:11:25;6.03;;;4.60;;
3427;SDS011;1727;42.624;23.406;2022-09-28T05:13:51;4.93;;;4.40;;
3427;SDS011;1727;42.624;23.406;2022-09-28T05:16:20;7.43;;;5.40;;
3427;SDS011;1727;42.624;23.406;2022-09-28T05:18:53;8.63;;;5.57;;
3427;SDS011;1727;42.624;23.406;2022-09-28T05:21:20;6.67;;;5.00;;
3427;SDS011;1727;42.624;23.406;2022-09-28T05:23:49;5.60;;;5.10;;
3427;SDS011;1727;42.624;23.406;2022-09-28T05:26:16;8.47;;;7.03;;
3427;SDS011;1727;42.624;23.406;2022-09-28T05:28:43;6.67;;;5.97;;
3427;SDS011;1727;42.624;23.406;2022-09-28T05:31:10;7.90;;;6.20;;
3427;SDS011;1727;42.624;23.406;2022-09-28T05:33:38;9.13;;;5.60;;
3427;SDS011;1727;42.624;23.406;2022-09-28T05:36:07;8.67;;;5.60;;
3427;SDS011;1727;42.624;23.406;2022-09-28T05:38:34;8.73;;;5.20;;
3427;SDS011;1727;42.624;23.406;2022-09-28T05:41:01;6.57;;;5.90;;
3427;SDS011;1727;42.624;23.406;2022-09-28T05:43:29;17.43;;;6.43;;
3427;SDS011;1727;42.624;23.406;2022-09-28T05:45:57;7.50;;;6.07;;
3427;SDS011;1727;42.624;23.406;2022-09-28T05:48:24;11.93;;;6.77;;
3427;SDS011;1727;42.624;23.406;2022-09-28T05:50:55;9.30;;;6.53;;
3427;SDS011;1727;42.624;23.406;2022-09-28T05:53:23;7.13;;;6.53;;
3427;SDS011;1727;42.624;23.406;2022-09-28T05:55:50;12.13;;;6.83;;
3427;SDS011;1727;42.624;23.406;2022-09-28T05:58:22;10.03;;;6.47;;
3427;SDS011;1727;42.624;23.406;2022-09-28T06:00:52;9.80;;;6.60;;
3427;SDS011;1727;42.624;23.406;2022-09-28T06:03:19;7.33;;;6.60;;
3427;SDS011;1727;42.624;23.406;2022-09-28T06:05:46;7.90;;;6.33;;
3427;SDS011;1727;42.624;23.406;2022-09-28T06:08:15;6.47;;;5.83;;
3427;SDS011;1727;42.624;23.406;2022-09-28T06:10:42;8.70;;;5.60;;
3427;SDS011;1727;42.624;23.406;2022-09-28T06:13:08;9.63;;;5.37;;
3427;SDS011;1727;42.624;23.406;2022-09-28T06:15:36;6.60;;;6.00;;
3427;SDS011;1727;42.624;23.406;2022-09-28T06:18:03;8.37;;;5.77;;
3427;SDS011;1727;42.624;23.406;2022-09-28T06:20:31;7.00;;;5.40;;
3427;SDS011;1727;42.624;23.406;2022-09-28T06:23:00;8.43;;;5.90;;
3427;SDS011;1727;42.624;23.406;2022-09-28T06:25:28;14.37;;;6.40;;
3427;SDS011;1727;42.624;23.406;2022-09-28T06:27:56;7.70;;;6.90;;
3427;SDS011;1727;42.624;23.406;2022-09-28T06:30:24;8.90;;;8.10;;
3427;SDS011;1727;42.624;23.406;2022-09-28T06:32:53;12.37;;;9.47;;
3427;SDS011;1727;42.624;23.406;2022-09-28T06:35:20;11.00;;;9.87;;
3427;SDS011;1727;42.624;23.406;2022-09-28T06:37:48;15.00;;;10.40;;
3427;SDS011;1727;42.624;23.406;2022-09-28T06:40:15;9.50;;;8.60;;
3427;SDS011;1727;42.624;23.406;2022-09-28T06:42:44;11.23;;;9.03;;
3427;SDS011;1727;42.624;23.406;2022-09-28T06:45:20;12.67;;;8.93;;
3427;SDS011;1727;42.624;23.406;2022-09-28T06:47:51;10.97;;;9.70;;
3427;SDS011;1727;42.624;23.406;2022-09-28T06:50:18;14.73;;;9.90;;
3427;SDS011;1727;42.624;23.406;2022-09-28T06:52:46;15.03;;;9.53;;
3427;SDS011;1727;42.624;23.406;2022-09-28T06:55:15;11.33;;;10.13;;
3427;SDS011;1727;42.624;23.406;2022-09-28T06:57:42;19.00;;;9.73;;
3427;SDS011;1727;42.624;23.406;2022-09-28T07:00:11;12.50;;;10.13;;
3427;SDS011;1727;42.624;23.406;2022-09-28T07:02:39;11.50;;;9.87;;
3427;SDS011;1727;42.624;23.406;2022-09-28T07:05:06;11.03;;;9.90;;
3427;SDS011;1727;42.624;23.406;2022-09-28T07:07:34;12.43;;;9.23;;
3427;SDS011;1727;42.624;23.406;2022-09-28T07:10:01;10.70;;;9.33;;
3427;SDS011;1727;42.624;23.406;2022-09-28T07:12:28;10.97;;;9.87;;
3427;SDS011;1727;42.624;23.406;2022-09-28T07:14:56;11.47;;;10.27;;
3427;SDS011;1727;42.624;23.406;2022-09-28T07:17:24;12.30;;;11.00;;
3427;SDS011;1727;42.624;23.406;2022-09-28T07:19:51;11.77;;;10.23;;
3427;SDS011;1727;42.624;23.406;2022-09-28T07:22:18;13.20;;;11.10;;
3427;SDS011;1727;42.624;23.406;2022-09-28T07:24:45;15.53;;;10.67;;
3427;SDS011;1727;42.624;23.406;2022-09-28T07:27:13;11.90;;;10.70;;
3427;SDS011;1727;42.624;23.406;2022-09-28T07:29:40;13.97;;;10.00;;
3427;SDS011;1727;42.624;23.406;2022-09-28T07:32:06;15.73;;;11.43;;
3427;SDS011;1727;42.624;23.406;2022-09-28T07:34:55;13.10;;;11.27;;
3427;SDS011;1727;42.624;23.406;2022-09-28T07:37:22;10.70;;;9.67;;
3427;SDS011;1727;42.624;23.406;2022-09-28T07:39:50;14.23;;;10.47;;
3427;SDS011;1727;42.624;23.406;2022-09-28T07:42:34;10.83;;;8.90;;
3427;SDS011;1727;42.624;23.406;2022-09-28T07:45:02;11.27;;;7.43;;
3427;SDS011;1727;42.624;23.406;2022-09-28T07:47:31;8.60;;;7.50;;
3427;SDS011;1727;42.624;23.406;2022-09-28T07:49:59;8.03;;;6.30;;
3427;SDS011;1727;42.624;23.406;2022-09-28T07:52:26;6.93;;;6.33;;
3427;SDS011;1727;42.624;23.406;2022-09-28T07:54:53;5.43;;;4.87;;
3427;SDS011;1727;42.624;23.406;2022-09-28T07:57:20;7.30;;;5.83;;
3427;SDS011;1727;42.624;23.406;2022-09-28T07:59:48;10.00;;;5.77;;
3427;SDS011;1727;42.624;23.406;2022-09-28T08:02:17;5.83;;;4.50;;
3427;SDS011;1727;42.624;23.406;2022-09-28T08:04:45;4.57;;;4.17;;
3427;SDS011;1727;42.624;23.406;2022-09-28T08:07:13;5.37;;;4.60;;
3427;SDS011;1727;42.624;23.406;2022-09-28T08:09:41;5.43;;;4.93;;
3427;SDS011;1727;42.624;23.406;2022-09-28T08:12:08;6.83;;;4.10;;
3427;SDS011;1727;42.624;23.406;2022-09-28T08:14:35;5.57;;;5.07;;
3427;SDS011;1727;42.624;23.406;2022-09-28T08:17:02;5.40;;;5.00;;
3427;SDS011;1727;42.624;23.406;2022-09-28T08:19:30;5.63;;;4.50;;
3427;SDS011;1727;42.624;23.406;2022-09-28T08:22:13;5.83;;;5.03;;
3427;SDS011;1727;42.624;23.406;2022-09-28T08:24:40;5.20;;;4.70;;
3427;SDS011;1727;42.624;23.406;2022-09-28T08:27:07;5.47;;;4.97;;
3427;SDS011;1727;42.624;23.406;2022-09-28T08:29:34;6.23;;;4.33;;
3427;SDS011;1727;42.624;23.406;2022-09-28T08:32:01;6.00;;;4.13;;
3427;SDS011;1727;42.624;23.406;2022-09-28T08:34:28;7.50;;;4.53;;
3427;SDS011;1727;42.624;23.406;2022-09-28T08:36:55;9.67;;;4.07;;
3427;SDS011;1727;42.624;23.406;2022-09-28T08:39:24;4.43;;;3.80;;
3427;SDS011;1727;42.624;23.406;2022-09-28T08:41:53;4.80;;;3.80;;
3427;SDS011;1727;42.624;23.406;2022-09-28T08:44:31;9.27;;;3.93;;
3427;SDS011;1727;42.624;23.406;2022-09-28T08:47:08;8.80;;;4.70;;
3427;SDS011;1727;42.624;23.406;2022-09-28T08:49:59;11.80;;;5.27;;
3427;SDS011;1727;42.624;23.406;2022-09-28T08:52:29;6.33;;;4.80;;
3427;SDS011;1727;42.624;23.406;2022-09-28T08:55:03;7.47;;;4.80;;
3427;SDS011;1727;42.624;23.406;2022-09-28T08:57:37;6.90;;;5.00;;
3427;SDS011;1727;42.624;23.406;2022-09-28T09:00:13;9.20;;;5.00;;
3427;SDS011;1727;42.624;23.406;2022-09-28T09:02:44;8.87;;;5.00;;
3427;SDS011;1727;42.624;23.406;2022-09-28T09:05:12;4.67;;;4.20;;
3427;SDS011;1727;42.624;23.406;2022-09-28T09:07:49;7.17;;;4.63;;
3427;SDS011;1727;42.624;23.406;2022-09-28T09:10:36;8.80;;;4.53;;
3427;SDS011;1727;42.624;23.406;2022-09-28T09:13:15;5.70;;;4.00;;
3427;SDS011;1727;42.624;23.406;2022-09-28T09:15:59;4.93;;;3.80;;
3427;SDS011;1727;42.624;23.406;2022-09-28T09:18:35;11.07;;;4.40;;
3427;SDS011;1727;42.624;23.406;2022-09-28T09:21:09;7.50;;;4.10;;
3427;SDS011;1727;42.624;23.406;2022-09-28T09:23:43;14.90;;;5.37;;
3427;SDS011;1727;42.624;23.406;2022-09-28T09:26:20;6.40;;;4.47;;
3427;SDS011;1727;42.624;23.406;2022-09-28T09:28:57;7.10;;;4.40;;
3427;SDS011;1727;42.624;23.406;2022-09-28T09:31:33;9.93;;;4.73;;
3427;SDS011;1727;42.624;23.406;2022-09-28T09:34:11;11.90;;;5.20;;
3427;SDS011;1727;42.624;23.406;2022-09-28T09:36:53;6.50;;;4.10;;
3427;SDS011;1727;42.624;23.406;2022-09-28T09:39:32;5.93;;;4.07;;
3427;SDS011;1727;42.624;23.406;2022-09-28T09:42:23;9.73;;;4.27;;
3427;SDS011;1727;42.624;23.406;2022-09-28T09:45:10;9.27;;;4.63;;
3427;SDS011;1727;42.624;23.406;2022-09-28T09:47:51;6.33;;;3.90;;
3427;SDS011;1727;42.624;23.406;2022-09-28T09:50:24;5.50;;;3.63;;
3427;SDS011;1727;42.624;23.406;2022-09-28T09:52:57;6.63;;;4.17;;
3427;SDS011;1727;42.624;23.406;2022-09-28T09:55:30;3.40;;;3.10;;
3427;SDS011;1727;42.624;23.406;2022-09-28T09:58:08;3.50;;;3.20;;
3427;SDS011;1727;42.624;23.406;2022-09-28T10:00:41;3.23;;;2.93;;
3427;SDS011;1727;42.624;23.406;2022-09-28T10:03:13;10.33;;;4.00;;
3427;SDS011;1727;42.624;23.406;2022-09-28T10:05:48;3.87;;;3.47;;
3427;SDS011;1727;42.624;23.406;2022-09-28T10:08:20;5.30;;;3.07;;
3427;SDS011;1727;42.624;23.406;2022-09-28T10:10:50;3.20;;;2.90;;
3427;SDS011;1727;42.624;23.406;2022-09-28T10:13:23;5.93;;;3.33;;
3427;SDS011;1727;42.624;23.406;2022-09-28T10:15:49;3.40;;;3.20;;
3427;SDS011;1727;42.624;23.406;2022-09-28T10:18:19;8.90;;;4.70;;
3427;SDS011;1727;42.624;23.406;2022-09-28T10:20:46;3.50;;;3.13;;
3427;SDS011;1727;42.624;23.406;2022-09-28T10:23:16;5.23;;;3.60;;
3427;SDS011;1727;42.624;23.406;2022-09-28T10:25:46;7.03;;;3.97;;
3427;SDS011;1727;42.624;23.406;2022-09-28T10:28:18;9.03;;;4.00;;
3427;SDS011;1727;42.624;23.406;2022-09-28T10:30:55;8.83;;;4.17;;
3427;SDS011;1727;42.624;23.406;2022-09-28T10:33:28;4.33;;;3.20;;
3427;SDS011;1727;42.624;23.406;2022-09-28T10:35:57;9.73;;;4.17;;
3427;SDS011;1727;42.624;23.406;2022-09-28T10:38:25;7.80;;;3.80;;
3427;SDS011;1727;42.624;23.406;2022-09-28T10:40:53;7.07;;;4.07;;
3427;SDS011;1727;42.624;23.406;2022-09-28T10:43:25;3.50;;;3.20;;
3427;SDS011;1727;42.624;23.406;2022-09-28T10:46:02;6.10;;;2.83;;
3427;SDS011;1727;42.624;23.406;2022-09-28T10:48:44;6.07;;;3.00;;
3427;SDS011;1727;42.624;23.406;2022-09-28T10:51:15;3.07;;;2.67;;
3427;SDS011;1727;42.624;23.406;2022-09-28T10:53:56;4.40;;;3.30;;
3427;SDS011;1727;42.624;23.406;2022-09-28T10:56:26;3.43;;;3.13;;
3427;SDS011;1727;42.624;23.406;2022-09-28T10:58:55;2.97;;;2.67;;
3427;SDS011;1727;42.624;23.406;2022-09-28T11:01:24;2.77;;;2.57;;
3427;SDS011;1727;42.624;23.406;2022-09-28T11:03:58;4.70;;;2.73;;
3427;SDS011;1727;42.624;23.406;2022-09-28T11:06:27;3.33;;;2.20;;
3427;SDS011;1727;42.624;23.406;2022-09-28T11:08:56;2.33;;;2.10;;
3427;SDS011;1727;42.624;23.406;2022-09-28T11:11:25;2.60;;;2.23;;
3427;SDS011;1727;42.624;23.406;2022-09-28T11:13:54;6.33;;;2.53;;
3427;SDS011;1727;42.624;23.406;2022-09-28T11:16:26;5.07;;;2.70;;
3427;SDS011;1727;42.624;23.406;2022-09-28T11:18:55;2.60;;;2.40;;
3427;SDS011;1727;42.624;23.406;2022-09-28T11:21:23;4.47;;;2.80;;
3427;SDS011;1727;42.624;23.406;2022-09-28T11:23:55;2.67;;;2.00;;
3427;SDS011;1727;42.624;23.406;2022-09-28T11:26:25;6.40;;;2.80;;
3427;SDS011;1727;42.624;23.406;2022-09-28T11:28:53;6.20;;;2.10;;
3427;SDS011;1727;42.624;23.406;2022-09-28T11:31:25;3.20;;;1.93;;
3427;SDS011;1727;42.624;23.406;2022-09-28T11:34:01;2.50;;;2.30;;
3427;SDS011;1727;42.624;23.406;2022-09-28T11:36:42;4.50;;;2.43;;
3427;SDS011;1727;42.624;23.406;2022-09-28T11:39:37;5.90;;;2.57;;
3427;SDS011;1727;42.624;23.406;2022-09-28T11:42:14;2.97;;;2.47;;
3427;SDS011;1727;42.624;23.406;2022-09-28T11:44:49;3.40;;;2.40;;
3427;SDS011;1727;42.624;23.406;2022-09-28T11:47:39;2.50;;;2.30;;
3427;SDS011;1727;42.624;23.406;2022-09-28T11:50:17;4.57;;;2.67;;
3427;SDS011;1727;42.624;23.406;2022-09-28T11:52:54;3.00;;;2.53;;
3427;SDS011;1727;42.624;23.406;2022-09-28T11:55:26;3.00;;;2.50;;
3427;SDS011;1727;42.624;23.406;2022-09-28T11:58:00;7.23;;;2.50;;
3427;SDS011;1727;42.624;23.406;2022-09-28T12:00:29;3.17;;;2.57;;
3427;SDS011;1727;42.624;23.406;2022-09-28T12:03:04;2.13;;;1.97;;
3427;SDS011;1727;42.624;23.406;2022-09-28T12:05:36;4.43;;;2.47;;
3427;SDS011;1727;42.624;23.406;2022-09-28T12:08:07;6.20;;;3.27;;
3427;SDS011;1727;42.624;23.406;2022-09-28T12:10:41;2.87;;;2.43;;
3427;SDS011;1727;42.624;23.406;2022-09-28T12:13:15;5.53;;;2.73;;
3427;SDS011;1727;42.624;23.406;2022-09-28T12:15:49;2.57;;;2.30;;
3427;SDS011;1727;42.624;23.406;2022-09-28T12:18:22;3.07;;;2.77;;
3427;SDS011;1727;42.624;23.406;2022-09-28T12:20:57;6.20;;;2.80;;
3427;SDS011;1727;42.624;23.406;2022-09-28T12:23:32;4.87;;;2.70;;
3427;SDS011;1727;42.624;23.406;2022-09-28T12:26:01;3.20;;;2.93;;
3427;SDS011;1727;42.624;23.406;2022-09-28T12:28:32;6.57;;;3.20;;
3427;SDS011;1727;42.624;23.406;2022-09-28T12:31:09;8.70;;;3.60;;
3427;SDS011;1727;42.624;23.406;2022-09-28T12:33:43;8.97;;;3.40;;
3427;SDS011;1727;42.624;23.406;2022-09-28T12:36:15;3.37;;;3.07;;
3427;SDS011;1727;42.624;23.406;2022-09-28T12:39:08;7.53;;;3.10;;
3427;SDS011;1727;42.624;23.406;2022-09-28T12:41:48;5.47;;;3.47;;
3427;SDS011;1727;42.624;23.406;2022-09-28T12:44:35;3.00;;;2.80;;
3427;SDS011;1727;42.624;23.406;2022-09-28T12:47:19;3.47;;;3.03;;
3427;SDS011;1727;42.624;23.406;2022-09-28T12:50:02;6.27;;;3.73;;
3427;SDS011;1727;42.624;23.406;2022-09-28T12:52:38;10.97;;;3.10;;
3427;SDS011;1727;42.624;23.406;2022-09-28T12:55:18;4.80;;;3.10;;
3427;SDS011;1727;42.624;23.406;2022-09-28T12:57:55;6.97;;;2.70;;
3427;SDS011;1727;42.624;23.406;2022-09-28T13:00:26;3.97;;;3.13;;
3427;SDS011;1727;42.624;23.406;2022-09-28T13:03:19;4.10;;;3.30;;
3427;SDS011;1727;42.624;23.406;2022-09-28T13:09:06;3.70;;;2.90;;
3427;SDS011;1727;42.624;23.406;2022-09-28T13:11:53;10.93;;;2.60;;
3427;SDS011;1727;42.624;23.406;2022-09-28T13:14:44;2.80;;;2.60;;
3427;SDS011;1727;42.624;23.406;2022-09-28T13:17:45;3.00;;;2.57;;
3427;SDS011;1727;42.624;23.406;2022-09-28T13:20:26;3.57;;;2.80;;
3427;SDS011;1727;42.624;23.406;2022-09-28T13:23:06;11.00;;;4.00;;
3427;SDS011;1727;42.624;23.406;2022-09-28T13:25:41;3.17;;;2.87;;
3427;SDS011;1727;42.624;23.406;2022-09-28T13:28:13;7.37;;;3.63;;
3427;SDS011;1727;42.624;23.406;2022-09-28T13:30:46;3.73;;;3.37;;
3427;SDS011;1727;42.624;23.406;2022-09-28T13:33:17;6.17;;;3.33;;
3427;SDS011;1727;42.624;23.406;2022-09-28T13:35:49;3.83;;;3.03;;
3427;SDS011;1727;42.624;23.406;2022-09-28T13:41:17;3.87;;;3.33;;
3427;SDS011;1727;42.624;23.406;2022-09-28T13:43:51;3.03;;;2.70;;
3427;SDS011;1727;42.624;23.406;2022-09-28T13:46:31;3.17;;;2.83;;
3427;SDS011;1727;42.624;23.406;2022-09-28T13:49:09;5.00;;;2.90;;
3427;SDS011;1727;42.624;23.406;2022-09-28T13:51:49;2.77;;;2.57;;
3427;SDS011;1727;42.624;23.406;2022-09-28T13:54:35;6.27;;;2.93;;
3427;SDS011;1727;42.624;23.406;2022-09-28T13:57:16;3.30;;;2.30;;
3427;SDS011;1727;42.624;23.406;2022-09-28T13:59:56;4.33;;;2.80;;
3427;SDS011;1727;42.624;23.406;2022-09-28T14:02:30;3.20;;;2.20;;
3427;SDS011;1727;42.624;23.406;2022-09-28T14:05:02;5.00;;;2.90;;
3427;SDS011;1727;42.624;23.406;2022-09-28T14:16:26;6.57;;;2.27;;
3427;SDS011;1727;42.624;23.406;2022-09-28T14:18:57;5.10;;;2.20;;
3427;SDS011;1727;42.624;23.406;2022-09-28T14:24:37;2.37;;;2.13;;
3427;SDS011;1727;42.624;23.406;2022-09-28T14:27:35;5.90;;;2.77;;
3427;SDS011;1727;42.624;23.406;2022-09-28T14:30:18;2.57;;;2.37;;
3427;SDS011;1727;42.624;23.406;2022-09-28T14:32:50;5.27;;;2.40;;
3427;SDS011;1727;42.624;23.406;2022-09-28T14:35:23;5.23;;;2.30;;
3427;SDS011;1727;42.624;23.406;2022-09-28T14:37:56;5.57;;;2.50;;
3427;SDS011;1727;42.624;23.406;2022-09-28T14:43:57;7.00;;;3.40;;
3427;SDS011;1727;42.624;23.406;2022-09-28T14:46:34;3.53;;;2.13;;
3427;SDS011;1727;42.624;23.406;2022-09-28T14:49:03;2.93;;;2.50;;
3427;SDS011;1727;42.624;23.406;2022-09-28T14:51:52;3.47;;;2.93;;
3427;SDS011;1727;42.624;23.406;2022-09-28T14:54:27;9.23;;;2.80;;
3427;SDS011;1727;42.624;23.406;2022-09-28T14:57:05;7.60;;;2.63;;
3427;SDS011;1727;42.624;23.406;2022-09-28T14:59:44;15.20;;;3.77;;
3427;SDS011;1727;42.624;23.406;2022-09-28T15:02:14;7.10;;;2.67;;
3427;SDS011;1727;42.624;23.406;2022-09-28T15:04:45;2.87;;;2.17;;
3427;SDS011;1727;42.624;23.406;2022-09-28T15:07:17;4.00;;;2.60;;
3427;SDS011;1727;42.624;23.406;2022-09-28T15:09:46;4.00;;;2.20;;
3427;SDS011;1727;42.624;23.406;2022-09-28T15:12:16;6.30;;;2.43;;
3427;SDS011;1727;42.624;23.406;2022-09-28T15:14:46;4.10;;;2.23;;
3427;SDS011;1727;42.624;23.406;2022-09-28T15:17:17;6.97;;;2.73;;
3427;SDS011;1727;42.624;23.406;2022-09-28T15:19:48;10.17;;;2.93;;
3427;SDS011;1727;42.624;23.406;2022-09-28T15:22:24;3.47;;;2.97;;
3427;SDS011;1727;42.624;23.406;2022-09-28T15:24:53;3.60;;;2.40;;
3427;SDS011;1727;42.624;23.406;2022-09-28T15:27:20;4.17;;;2.30;;
3427;SDS011;1727;42.624;23.406;2022-09-28T15:29:56;9.33;;;3.00;;
3427;SDS011;1727;42.624;23.406;2022-09-28T15:32:24;14.00;;;3.23;;
3427;SDS011;1727;42.624;23.406;2022-09-28T15:34:51;6.83;;;2.87;;
3427;SDS011;1727;42.624;23.406;2022-09-28T15:37:20;2.87;;;2.43;;
3427;SDS011;1727;42.624;23.406;2022-09-28T15:39:49;6.17;;;3.83;;
3427;SDS011;1727;42.624;23.406;2022-09-28T15:42:17;7.33;;;3.10;;
3427;SDS011;1727;42.624;23.406;2022-09-28T15:47:48;12.23;;;4.33;;
3427;SDS011;1727;42.624;23.406;2022-09-28T15:50:23;8.27;;;3.93;;
3427;SDS011;1727;42.624;23.406;2022-09-28T15:52:53;6.90;;;3.93;;
3427;SDS011;1727;42.624;23.406;2022-09-28T15:55:26;15.83;;;3.50;;
3427;SDS011;1727;42.624;23.406;2022-09-28T15:58:03;7.40;;;2.90;;